createdAt,value
2019-05-12T05:11:35.425Z,1022.90
2019-05-12T05:21:34.564Z,1022.83
2019-05-12T05:31:33.847Z,1023.03
2019-05-12T05:41:34.554Z,1023.28
2019-05-12T05:51:33.639Z,1023.37
2019-05-12T06:01:34.747Z,1023.45
2019-05-12T06:11:34.530Z,1023.52
2019-05-12T06:21:36.405Z,1023.57
2019-05-12T06:31:33.563Z,1023.69
2019-05-12T06:41:33.635Z,1023.80
2019-05-12T06:51:33.966Z,1023.92
2019-05-12T07:01:33.536Z,1023.87
2019-05-12T07:11:42.423Z,1024.05
2019-05-12T07:21:33.618Z,1024.03
2019-05-12T07:31:33.728Z,1024.12
2019-05-12T07:41:34.219Z,1024.10
2019-05-12T07:51:38.276Z,1024.24
2019-05-12T08:01:44.741Z,1024.26
2019-05-12T08:11:36.755Z,1024.48
2019-05-12T08:21:34.868Z,1024.40
2019-05-12T08:31:40.194Z,1024.50
2019-05-12T08:41:34.170Z,1024.48
2019-05-12T08:51:33.931Z,1024.45
2019-05-12T09:01:34.399Z,1024.41
2019-05-12T09:11:33.579Z,1024.46
2019-05-12T09:21:36.577Z,1024.53
2019-05-12T09:31:33.805Z,1024.61
2019-05-12T09:41:41.727Z,1024.61
2019-05-12T09:51:41.330Z,1024.67
2019-05-12T10:01:37.986Z,1024.64
2019-05-12T10:11:32.903Z,1024.58
2019-05-12T10:21:35.652Z,1024.82
2019-05-12T10:31:35.786Z,1024.82
2019-05-12T10:41:34.223Z,1024.69
2019-05-12T10:51:34.380Z,1024.97
2019-05-12T11:01:32.969Z,1024.99
2019-05-12T11:11:41.709Z,1025.09
2019-05-12T11:21:33.672Z,1025.15
2019-05-12T11:31:33.439Z,1025.14
2019-05-12T11:41:33.324Z,1025.09
2019-05-12T11:51:34.036Z,1025.09
2019-05-12T12:01:34.449Z,1025.15
2019-05-12T12:11:34.252Z,1025.37
2019-05-12T12:21:35.009Z,1025.33
2019-05-12T12:31:37.322Z,1025.66
2019-05-12T12:41:34.128Z,1025.61
2019-05-12T12:51:34.138Z,1025.61
2019-05-12T13:01:35.680Z,1025.88
2019-05-12T13:11:34.864Z,1025.92
2019-05-12T13:21:33.577Z,1025.88
2019-05-12T13:31:33.337Z,1025.83
2019-05-12T13:41:32.624Z,1025.81
2019-05-12T13:51:35.193Z,1026.12
2019-05-12T14:01:40.240Z,1026.00
2019-05-12T14:11:35.088Z,1026.17
2019-05-12T14:21:40.888Z,1026.34
2019-05-12T14:31:36.356Z,1026.40
2019-05-12T14:41:34.201Z,1026.21
2019-05-12T14:51:33.454Z,1026.17
2019-05-12T15:01:51.837Z,1026.30
2019-05-12T15:11:34.120Z,1026.40
2019-05-12T15:21:33.975Z,1026.45
2019-05-12T15:31:33.693Z,1026.39
2019-05-12T15:41:33.388Z,1026.48
2019-05-12T15:51:37.166Z,1026.55
2019-05-12T16:01:33.588Z,1026.77
2019-05-12T16:11:34.126Z,1026.68
2019-05-12T16:21:33.352Z,1026.96
2019-05-12T16:31:33.944Z,1026.97
2019-05-12T16:41:34.455Z,1027.07
2019-05-12T16:51:33.462Z,1027.25
2019-05-12T17:01:33.595Z,1027.38
2019-05-12T17:11:37.448Z,1027.31
2019-05-12T17:21:33.601Z,1027.41
2019-05-12T17:31:33.926Z,1027.69
2019-05-12T17:41:40.223Z,1027.87
2019-05-12T17:51:33.148Z,1027.91
2019-05-12T18:01:35.483Z,1027.97
2019-05-12T18:11:35.494Z,1028.08
2019-05-12T18:21:34.043Z,1028.25
2019-05-12T18:31:33.479Z,1028.39
2019-05-12T18:41:33.683Z,1028.55
2019-05-12T18:51:34.286Z,1028.79
2019-05-12T19:01:33.523Z,1028.91
